Time;durP1;ratioP1;P1;durP2;ratioP2;P2;SDS_P1;SDS_P2;PMS_P1;PMS_P2;Temp;Humidity;BMP_temperature;BMP_pressure;BME280_temperature;BME280_humidity;BME280_pressure;Samples;Min_cycle;Max_cycle;Signal;HPM_P1;HPM_P2
2022/12/27 00:02:03;;;;;;;2.50;1.02;;;;;;;-143.04;100.00;61139.28;4946976;28;20057;-82
2022/12/27 00:04:28;;;;;;;0.80;0.80;;;;;;;-143.04;100.00;61139.28;4973476;28;20039;-83
2022/12/27 00:06:54;;;;;;;1.70;0.75;;;;;;;-143.04;100.00;61139.28;4962833;28;20097;-82
2022/12/27 00:09:20;;;;;;;1.80;0.85;;;;;;;-143.04;100.00;61139.28;4968731;28;20046;-82
2022/12/27 00:11:45;;;;;;;4.28;1.20;;;;;;;-143.04;100.00;61139.28;4970157;28;20039;-82
2022/12/27 00:14:11;;;;;;;2.03;0.90;;;;;;;-143.04;100.00;61139.28;4971290;28;20629;-82
2022/12/27 00:16:37;;;;;;;3.08;1.27;;;;;;;-143.04;100.00;61139.28;4966778;28;20031;-82
2022/12/27 00:19:03;;;;;;;2.25;0.93;;;;;;;-143.04;100.00;61139.28;4967030;28;20053;-82
2022/12/27 00:21:29;;;;;;;1.25;0.75;;;;;;;-143.04;100.00;61139.28;4968464;28;20038;-82
2022/12/27 00:23:56;;;;;;;0.90;0.70;;;;;;;-143.04;100.00;61139.28;4967952;28;20387;-82
2022/12/27 00:26:26;;;;;;;1.10;0.82;;;;;;;-143.04;100.00;61139.28;4969384;28;20711;-82
2022/12/27 00:28:52;;;;;;;0.70;0.70;;;;;;;-143.04;100.00;61139.28;4969749;28;20118;-82
2022/12/27 00:31:20;;;;;;;1.77;0.82;;;;;;;-143.04;100.00;61139.28;4967554;28;20038;-82
2022/12/27 00:33:49;;;;;;;1.17;1.00;;;;;;;-143.04;100.00;61139.28;4969217;28;20530;-83
2022/12/27 00:36:20;;;;;;;0.70;0.70;;;;;;;-143.04;100.00;61139.28;4968111;28;20119;-82
2022/12/27 00:38:46;;;;;;;0.80;0.80;;;;;;;-143.04;100.00;61139.28;4971774;28;20427;-83
2022/12/27 00:41:13;;;;;;;0.98;0.80;;;;;;;-143.04;100.00;61139.28;4969855;28;20477;-82
2022/12/27 00:43:39;;;;;;;0.93;0.88;;;;;;;-143.04;100.00;61139.28;4970244;28;20066;-82
2022/12/27 00:46:06;;;;;;;1.58;1.00;;;;;;;-143.04;100.00;61139.28;4967439;28;20100;-82
2022/12/27 00:48:32;;;;;;;0.70;0.70;;;;;;;-143.04;100.00;61139.28;4969678;28;20117;-82
2022/12/27 00:51:06;;;;;;;1.65;1.02;;;;;;;-143.04;100.00;61139.28;4966450;28;20110;-82
2022/12/27 00:53:35;;;;;;;1.27;1.00;;;;;;;-143.04;100.00;61139.28;4969591;28;20042;-82
2022/12/27 00:56:09;;;;;;;2.35;1.00;;;;;;;-143.04;100.00;61139.28;4967181;28;20037;-82
2022/12/27 00:58:35;;;;;;;0.80;0.68;;;;;;;-143.04;100.00;61139.28;4963510;28;20039;-82
2022/12/27 01:01:17;;;;;;;1.08;0.80;;;;;;;-143.04;100.00;61139.28;4963369;28;20106;-82
2022/12/27 01:03:44;;;;;;;1.83;0.98;;;;;;;-143.04;100.00;61139.28;4965841;28;20114;-82
2022/12/27 01:06:14;;;;;;;0.55;0.55;;;;;;;-143.04;100.00;61139.28;4966567;28;20035;-82
2022/12/27 01:08:40;;;;;;;1.83;1.00;;;;;;;-143.04;100.00;61139.28;4965362;28;20035;-83
2022/12/27 01:11:07;;;;;;;1.50;1.10;;;;;;;-143.04;100.00;61139.28;4966276;28;20057;-82
2022/12/27 01:13:34;;;;;;;0.95;0.88;;;;;;;-143.04;100.00;61139.28;4969129;28;20031;-82
2022/12/27 01:16:00;;;;;;;1.30;0.88;;;;;;;-143.04;100.00;61139.28;4970784;28;20031;-82
2022/12/27 01:18:26;;;;;;;1.80;0.77;;;;;;;-143.04;100.00;61139.28;4968582;28;20045;-82
2022/12/27 01:20:52;;;;;;;1.65;1.00;;;;;;;-143.04;100.00;61139.28;4968303;28;20113;-82
2022/12/27 01:23:17;;;;;;;0.85;0.85;;;;;;;-143.04;100.00;61139.28;4969887;28;20030;-82
2022/12/27 01:25:46;;;;;;;1.92;1.10;;;;;;;-143.04;100.00;61139.28;4964969;28;20038;-82
2022/12/27 01:28:11;;;;;;;1.10;0.98;;;;;;;-143.04;100.00;61139.28;4966261;28;20026;-82
2022/12/27 01:30:37;;;;;;;1.75;0.85;;;;;;;-143.04;100.00;61139.28;4968344;28;20046;-82
2022/12/27 01:33:02;;;;;;;2.65;0.85;;;;;;;-143.04;100.00;61139.28;4970775;28;20487;-82
2022/12/27 01:35:28;;;;;;;2.15;0.90;;;;;;;-143.04;100.00;61139.28;4959137;28;20051;-82
2022/12/27 01:37:53;;;;;;;1.33;0.90;;;;;;;-143.04;100.00;61139.28;4954292;28;20190;-82
2022/12/27 01:40:19;;;;;;;1.42;1.00;;;;;;;-143.04;100.00;61139.28;4952826;28;20135;-82
2022/12/27 01:42:54;;;;;;;3.55;1.30;;;;;;;-143.04;100.00;61139.28;4956171;28;20042;-82
2022/12/27 01:45:24;;;;;;;1.50;1.00;;;;;;;-143.04;100.00;61139.28;4958630;28;20386;-82
2022/12/27 01:48:12;;;;;;;4.88;1.10;;;;;;;-143.04;100.00;61139.28;4958289;28;20078;-82
2022/12/27 01:50:46;;;;;;;3.28;1.15;;;;;;;-143.04;100.00;61139.28;4954218;28;20079;-82
2022/12/27 01:53:35;;;;;;;1.25;1.10;;;;;;;-143.04;100.00;61139.28;4947477;28;20040;-82
2022/12/27 01:56:28;;;;;;;1.13;1.00;;;;;;;-143.04;100.00;61139.28;4945321;29;20067;-82
2022/12/27 01:59:08;;;;;;;2.70;1.13;;;;;;;-143.04;100.00;61139.28;4952960;28;20065;-82
2022/12/27 02:01:41;;;;;;;0.85;0.85;;;;;;;-143.04;100.00;61139.28;4948272;28;20035;-82
2022/12/27 02:04:14;;;;;;;1.60;1.08;;;;;;;-143.04;100.00;61139.28;4954843;28;20035;-82
2022/12/27 02:06:41;;;;;;;1.83;1.00;;;;;;;-143.04;100.00;61139.28;4957478;28;20507;-82
2022/12/27 02:09:13;;;;;;;2.88;1.00;;;;;;;-143.04;100.00;61139.28;4955965;28;20122;-82
2022/12/27 02:11:51;;;;;;;1.20;0.95;;;;;;;-143.04;100.00;61139.28;4948129;28;20099;-82
2022/12/27 02:14:31;;;;;;;3.25;1.10;;;;;;;-143.04;100.00;61139.28;4966873;28;20494;-82
2022/12/27 02:17:00;;;;;;;5.07;1.60;;;;;;;-143.04;100.00;61139.28;4944392;28;20031;-82
2022/12/27 02:19:47;;;;;;;1.15;1.05;;;;;;;-143.04;100.00;61139.28;4945884;28;20036;-82
2022/12/27 02:25:54;;;;;;;2.45;0.90;;;;;;;-143.04;100.00;61139.28;4946180;28;20551;-82
2022/12/27 02:28:32;;;;;;;1.42;0.85;;;;;;;-143.04;100.00;61139.28;4943272;28;20034;-82
2022/12/27 02:31:13;;;;;;;0.88;0.80;;;;;;;-143.04;100.00;61139.28;4950984;28;20050;-82
2022/12/27 02:33:47;;;;;;;2.40;0.90;;;;;;;-143.04;100.00;61139.28;4955045;28;20055;-82
2022/12/27 02:36:25;;;;;;;1.10;0.70;;;;;;;-143.04;100.00;61139.28;4969647;28;20039;-82
2022/12/27 02:38:58;;;;;;;3.60;0.90;;;;;;;-143.04;100.00;61139.28;4964363;28;20030;-82
2022/12/27 02:53:21;;;;;;;0.93;0.90;;;;;;;-143.04;100.00;61139.28;4971859;28;20050;-82
2022/12/27 02:59:11;;;;;;;1.60;1.10;;;;;;;-143.04;100.00;61139.28;4973953;28;20031;-82
2022/12/27 03:05:02;;;;;;;2.17;0.90;;;;;;;-143.04;100.00;61139.28;4975827;28;20034;-82
2022/12/27 03:07:53;;;;;;;3.60;1.02;;;;;;;-143.04;100.00;61139.28;4973898;28;20031;-82
2022/12/27 03:17:14;;;;;;;1.30;1.20;;;;;;;-143.04;100.00;61139.28;4971756;28;20364;-82
2022/12/27 03:25:42;;;;;;;1.30;1.10;;;;;;;-143.04;100.00;61139.28;4952588;28;20489;-82
2022/12/27 03:34:30;;;;;;;1.60;1.05;;;;;;;-143.04;100.00;61139.28;4972834;28;20046;-82
2022/12/27 03:40:04;;;;;;;1.10;0.80;;;;;;;-143.04;100.00;61139.28;4975847;28;20102;-82
2022/12/27 03:46:32;;;;;;;1.55;0.93;;;;;;;-143.04;100.00;61139.28;4970113;28;20037;-82
2022/12/27 03:48:14;;;;;;;3.25;1.05;;;;;;;-143.04;100.00;61139.28;4976803;28;20053;-82
2022/12/27 03:50:52;;;;;;;3.88;1.13;;;;;;;-143.04;100.00;61139.28;4962538;28;20038;-82
2022/12/27 03:53:29;;;;;;;5.65;1.30;;;;;;;-143.04;100.00;61139.28;4970157;28;20035;-82
2022/12/27 03:55:56;;;;;;;1.67;0.98;;;;;;;-143.04;100.00;61139.28;4971258;28;20109;-82
2022/12/27 03:58:22;;;;;;;3.40;1.20;;;;;;;-143.04;100.00;61139.28;4972692;28;20039;-82
2022/12/27 04:00:47;;;;;;;4.82;1.20;;;;;;;-143.04;100.00;61139.28;4972187;28;20074;-82
2022/12/27 04:03:12;;;;;;;3.80;1.30;;;;;;;-143.04;100.00;61139.28;4967589;28;20031;-83
2022/12/27 04:05:38;;;;;;;2.85;1.30;;;;;;;-143.04;100.00;61139.28;4970462;28;20122;-82
2022/12/27 04:35:27;;;;;;;1.40;1.17;;;;;;;-143.04;100.00;61139.28;4965803;28;20050;-82
2022/12/27 04:37:52;;;;;;;1.92;1.40;;;;;;;-143.04;100.00;61139.28;4967266;28;20027;-83
2022/12/27 04:56:43;;;;;;;2.30;1.25;;;;;;;-143.04;100.00;61139.28;4966075;28;20074;-83
2022/12/27 05:02:02;;;;;;;1.80;1.27;;;;;;;-143.04;100.00;61139.28;4966255;28;20113;-83
2022/12/27 05:04:31;;;;;;;1.95;1.15;;;;;;;-143.04;100.00;61139.28;4967515;28;20117;-82
2022/12/27 05:06:57;;;;;;;1.15;1.02;;;;;;;-143.04;100.00;61139.28;4954131;28;20093;-83
2022/12/27 05:14:54;;;;;;;2.65;1.33;;;;;;;-143.04;100.00;61139.28;4972983;28;20073;-83
2022/12/27 05:17:19;;;;;;;3.38;1.13;;;;;;;-143.04;100.00;61139.28;4970591;28;20059;-83
2022/12/27 05:19:44;;;;;;;1.95;1.20;;;;;;;-143.04;100.00;61139.28;4967827;28;20114;-83
2022/12/27 05:27:39;;;;;;;1.10;1.02;;;;;;;-143.04;100.00;61139.28;4971244;28;20041;-83
2022/12/27 05:30:05;;;;;;;3.65;1.20;;;;;;;-143.04;100.00;61139.28;4971936;28;20038;-83
2022/12/27 05:32:30;;;;;;;3.85;1.70;;;;;;;-143.04;100.00;61139.28;4967031;28;20047;-82
2022/12/27 05:34:56;;;;;;;2.30;1.38;;;;;;;-143.04;100.00;61139.28;4967903;28;20054;-82
2022/12/27 05:37:21;;;;;;;1.13;1.00;;;;;;;-143.04;100.00;61139.28;4944228;28;20043;-82
2022/12/27 05:39:47;;;;;;;1.17;1.02;;;;;;;-143.04;100.00;61139.28;4943603;28;20115;-82
2022/12/27 05:42:12;;;;;;;3.67;1.35;;;;;;;-143.04;100.00;61139.28;4956744;28;20039;-82
2022/12/27 05:44:37;;;;;;;2.92;1.45;;;;;;;-143.04;100.00;61139.28;4952412;28;20816;-83
2022/12/27 05:47:03;;;;;;;3.03;1.40;;;;;;;-143.04;100.00;61139.28;4948008;28;20090;-83
2022/12/27 05:49:28;;;;;;;3.28;1.40;;;;;;;-143.04;100.00;61139.28;4950627;28;20046;-83
2022/12/27 05:51:54;;;;;;;2.13;1.40;;;;;;;-143.04;100.00;61139.28;4952942;28;20058;-83
2022/12/27 05:54:19;;;;;;;2.67;1.25;;;;;;;-143.04;100.00;61139.28;4944162;28;20035;-82
2022/12/27 05:56:45;;;;;;;4.30;1.75;;;;;;;-143.04;100.00;61139.28;4945187;28;20110;-83
2022/12/27 05:59:10;;;;;;;2.33;1.33;;;;;;;-143.04;100.00;61139.28;4955674;28;20117;-82
2022/12/27 06:01:36;;;;;;;3.22;1.45;;;;;;;-143.04;100.00;61139.28;4953209;28;20125;-82
2022/12/27 06:04:01;;;;;;;2.25;1.25;;;;;;;-143.04;100.00;61139.28;4951856;28;20499;-82
2022/12/27 06:06:27;;;;;;;2.75;1.38;;;;;;;-143.04;100.00;61139.28;4956847;28;20483;-83
2022/12/27 06:08:53;;;;;;;2.15;1.23;;;;;;;-143.04;100.00;61139.28;4955182;28;20367;-82
2022/12/27 06:11:19;;;;;;;1.58;1.10;;;;;;;-143.04;100.00;61139.28;4953482;28;20045;-82
2022/12/27 06:13:51;;;;;;;5.38;1.70;;;;;;;-143.04;100.00;61139.28;4952655;28;20117;-82
2022/12/27 06:16:20;;;;;;;3.03;1.40;;;;;;;-143.04;100.00;61139.28;4956006;28;20077;-82
2022/12/27 06:18:45;;;;;;;1.65;1.23;;;;;;;-143.04;100.00;61139.28;4951055;28;20039;-82
2022/12/27 06:21:20;;;;;;;2.63;1.30;;;;;;;-143.04;100.00;61139.28;4954713;28;20069;-83
2022/12/27 06:23:47;;;;;;;2.15;1.10;;;;;;;-143.04;100.00;61139.28;4952459;28;20044;-83
2022/12/27 06:26:18;;;;;;;5.53;1.40;;;;;;;-143.04;100.00;61139.28;4953931;28;20453;-82
2022/12/27 06:28:43;;;;;;;2.88;1.40;;;;;;;-143.04;100.00;61139.28;4948691;28;20039;-82
2022/12/27 06:31:10;;;;;;;6.95;1.73;;;;;;;-143.04;100.00;61139.28;4950914;28;20548;-82
2022/12/27 06:33:35;;;;;;;3.83;1.55;;;;;;;-143.04;100.00;61139.28;4945453;28;20043;-83
2022/12/27 06:36:13;;;;;;;2.60;1.15;;;;;;;-143.04;100.00;61139.28;4962820;28;20031;-82
2022/12/27 06:38:39;;;;;;;4.00;1.65;;;;;;;-143.04;100.00;61139.28;4966489;28;20073;-82
2022/12/27 06:41:09;;;;;;;3.30;1.50;;;;;;;-143.04;100.00;61139.28;4968855;28;20070;-83
2022/12/27 06:43:36;;;;;;;5.13;1.30;;;;;;;-143.04;100.00;61139.28;4961532;28;20536;-82
2022/12/27 06:46:08;;;;;;;3.28;1.40;;;;;;;-143.04;100.00;61139.28;4958625;28;20145;-82
2022/12/27 06:48:35;;;;;;;1.63;1.30;;;;;;;-143.04;100.00;61139.28;4964443;28;20042;-82
2022/12/27 06:51:12;;;;;;;3.63;1.63;;;;;;;-143.04;100.00;61139.28;4964481;28;20427;-82
2022/12/27 06:53:37;;;;;;;1.60;1.23;;;;;;;-143.04;100.00;61139.28;4963472;28;20035;-82
2022/12/27 06:56:05;;;;;;;2.22;1.55;;;;;;;-143.04;100.00;61139.28;4965681;28;20050;-82
2022/12/27 06:58:31;;;;;;;4.65;1.65;;;;;;;-143.04;100.00;61139.28;4962826;28;20565;-82
2022/12/27 07:00:56;;;;;;;1.98;1.45;;;;;;;-143.04;100.00;61139.28;4963015;28;20082;-82
2022/12/27 07:03:22;;;;;;;1.60;1.30;;;;;;;-143.04;100.00;61139.28;4966186;28;20479;-82
2022/12/27 07:05:47;;;;;;;2.50;1.67;;;;;;;-143.04;100.00;61139.28;4963809;28;20426;-82
2022/12/27 07:08:13;;;;;;;3.60;1.60;;;;;;;-143.04;100.00;61139.28;4961416;28;20073;-82
2022/12/27 07:10:38;;;;;;;4.57;1.48;;;;;;;-143.04;100.00;61139.28;4963814;28;20049;-82
2022/12/27 07:13:04;;;;;;;2.35;1.58;;;;;;;-143.04;100.00;61139.28;4966935;28;20214;-82
2022/12/27 07:15:29;;;;;;;1.60;1.20;;;;;;;-143.04;100.00;61139.28;4965417;28;20122;-82
2022/12/27 07:17:55;;;;;;;2.40;1.20;;;;;;;-143.04;100.00;61139.28;4961491;28;20043;-83
2022/12/27 07:20:20;;;;;;;4.05;1.90;;;;;;;-143.04;100.00;61139.28;4959407;28;20519;-82
2022/12/27 07:22:46;;;;;;;2.30;1.40;;;;;;;-143.04;100.00;61139.28;4960582;28;20035;-82
2022/12/27 07:25:11;;;;;;;3.83;1.77;;;;;;;-143.04;100.00;61139.28;4965147;28;20050;-82
2022/12/27 07:27:37;;;;;;;2.63;1.60;;;;;;;-143.04;100.00;61139.28;4964428;28;20121;-82
2022/12/27 07:30:04;;;;;;;4.13;1.52;;;;;;;-143.04;100.00;61139.28;4960943;28;20717;-83
2022/12/27 07:32:30;;;;;;;7.70;2.03;;;;;;;-143.04;100.00;61139.28;4964677;28;20035;-82
2022/12/27 07:34:55;;;;;;;4.88;1.65;;;;;;;-143.04;100.00;61139.28;4957376;28;20573;-86
2022/12/27 07:37:22;;;;;;;2.30;1.58;;;;;;;-143.04;100.00;61139.28;4967038;28;20459;-84
2022/12/27 07:39:48;;;;;;;2.15;1.60;;;;;;;-143.04;100.00;61139.28;4969830;28;20062;-84
2022/12/27 07:42:13;;;;;;;4.68;2.00;;;;;;;-143.04;100.00;61139.28;4969478;28;20050;-84
2022/12/27 07:44:39;;;;;;;2.78;1.60;;;;;;;-143.04;100.00;61139.28;4965907;28;20506;-84
2022/12/27 07:47:05;;;;;;;7.15;2.00;;;;;;;-143.04;100.00;61139.28;4963801;28;20045;-84
2022/12/27 07:49:32;;;;;;;3.20;1.50;;;;;;;-143.04;100.00;61139.28;4963476;28;20066;-84
2022/12/27 07:51:57;;;;;;;8.40;1.90;;;;;;;-143.04;100.00;61139.28;4969658;28;20031;-83
2022/12/27 07:54:23;;;;;;;4.00;1.70;;;;;;;-143.04;100.00;61139.28;4968640;28;20037;-84
2022/12/27 07:56:48;;;;;;;4.20;1.70;;;;;;;-143.04;100.00;61139.28;4969542;28;20034;-84
2022/12/27 07:59:14;;;;;;;2.03;1.80;;;;;;;-143.04;100.00;61139.28;4963665;28;20039;-84
2022/12/27 08:04:24;;;;;;;3.88;1.90;;;;;;;-143.04;100.00;61139.28;4967636;28;20339;-85
2022/12/27 08:06:50;;;;;;;4.75;1.75;;;;;;;-143.04;100.00;61139.28;4965242;28;20043;-84
2022/12/27 08:09:26;;;;;;;3.17;1.80;;;;;;;-143.04;100.00;61139.28;4963844;28;20043;-84
2022/12/27 08:11:52;;;;;;;4.70;1.92;;;;;;;-143.04;100.00;61139.28;4963320;28;20113;-84
2022/12/27 08:14:17;;;;;;;3.45;1.90;;;;;;;-143.04;100.00;61139.28;4968838;28;20095;-84
2022/12/27 08:16:43;;;;;;;2.03;1.38;;;;;;;-143.04;100.00;61139.28;4968304;28;20035;-84
2022/12/27 08:19:08;;;;;;;6.05;1.80;;;;;;;-143.04;100.00;61139.28;4969669;28;20037;-84
2022/12/27 08:21:34;;;;;;;4.57;1.70;;;;;;;-143.04;100.00;61139.28;4971073;28;20049;-84
2022/12/27 08:23:59;;;;;;;5.20;2.97;;;;;;;-143.04;100.00;61139.28;4970033;28;20039;-84
2022/12/27 08:26:25;;;;;;;2.83;1.90;;;;;;;-143.04;100.00;61139.28;4966041;28;20046;-84
2022/12/27 08:28:51;;;;;;;4.63;2.65;;;;;;;-143.04;100.00;61139.28;4970763;28;20035;-85
2022/12/27 08:31:16;;;;;;;3.25;1.58;;;;;;;-143.04;100.00;61139.28;4973249;28;20038;-86
2022/12/27 08:33:42;;;;;;;3.75;2.00;;;;;;;-143.04;100.00;61139.28;4971422;28;20078;-85
2022/12/27 08:36:11;;;;;;;2.58;1.65;;;;;;;-143.04;100.00;61139.28;4974634;28;20054;-85
2022/12/27 08:38:37;;;;;;;3.42;1.52;;;;;;;-143.04;100.00;61139.28;4977302;28;20113;-85
2022/12/27 08:41:02;;;;;;;2.53;2.10;;;;;;;-143.04;100.00;61139.28;4966426;28;20114;-85
2022/12/27 08:43:28;;;;;;;4.38;2.45;;;;;;;-143.04;100.00;61139.28;4970444;28;20050;-85
2022/12/27 08:46:03;;;;;;;6.22;2.42;;;;;;;-143.04;100.00;61139.28;4970013;28;20034;-85
2022/12/27 08:48:32;;;;;;;3.63;2.30;;;;;;;-143.04;100.00;61139.28;4966093;28;20046;-84
2022/12/27 08:51:04;;;;;;;5.13;2.05;;;;;;;-143.04;100.00;61139.28;4970030;28;20047;-84
2022/12/27 08:53:30;;;;;;;3.92;2.28;;;;;;;-143.04;100.00;61139.28;4968624;28;20057;-84
2022/12/27 08:55:56;;;;;;;3.63;2.00;;;;;;;-143.04;100.00;61139.28;4973212;28;20031;-84
2022/12/27 08:58:22;;;;;;;2.92;2.17;;;;;;;-143.04;100.00;61139.28;4973779;28;20046;-84
2022/12/27 09:00:48;;;;;;;3.35;1.90;;;;;;;-143.04;100.00;61139.28;4957099;28;20510;-85
2022/12/27 09:03:20;;;;;;;2.70;2.03;;;;;;;-143.04;100.00;61139.28;4966831;28;20039;-85
2022/12/27 09:05:48;;;;;;;6.45;2.22;;;;;;;-143.04;100.00;61139.28;4971797;28;20073;-87
2022/12/27 09:08:13;;;;;;;3.90;2.05;;;;;;;-143.04;100.00;61139.28;4951166;28;20047;-84
2022/12/27 09:10:39;;;;;;;3.60;2.20;;;;;;;-143.04;100.00;61139.28;4966735;28;20037;-84
2022/12/27 09:13:04;;;;;;;4.00;2.20;;;;;;;-143.04;100.00;61139.28;4965869;28;20053;-85
2022/12/27 09:15:30;;;;;;;13.13;6.53;;;;;;;-143.04;100.00;61139.28;4966294;28;20487;-84
2022/12/27 09:17:55;;;;;;;3.38;2.28;;;;;;;-143.04;100.00;61139.28;4964501;28;20058;-84
2022/12/27 09:20:21;;;;;;;2.80;1.80;;;;;;;-143.04;100.00;61139.28;4965807;28;20034;-84
2022/12/27 09:22:46;;;;;;;5.28;2.40;;;;;;;-143.04;100.00;61139.28;4968193;28;20097;-84
2022/12/27 09:25:12;;;;;;;3.28;2.10;;;;;;;-143.04;100.00;61139.28;4965432;28;20042;-83
2022/12/27 09:27:37;;;;;;;7.63;2.10;;;;;;;-143.04;100.00;61139.28;4967972;28;20573;-84
2022/12/27 09:30:05;;;;;;;6.43;2.05;;;;;;;-143.04;100.00;61139.28;4959423;28;20114;-83
2022/12/27 09:32:31;;;;;;;5.78;1.90;;;;;;;-143.04;100.00;61139.28;4970638;28;20039;-84
2022/12/27 09:34:57;;;;;;;3.45;2.08;;;;;;;-143.04;100.00;61139.28;4970362;28;20042;-84
2022/12/27 09:37:22;;;;;;;3.15;1.70;;;;;;;-143.04;100.00;61139.28;4968518;28;20085;-84
2022/12/27 09:39:48;;;;;;;3.97;1.67;;;;;;;-143.04;100.00;61139.28;4969992;28;20038;-84
2022/12/27 09:42:14;;;;;;;4.50;2.20;;;;;;;-143.04;100.00;61139.28;4982629;28;20031;-84
2022/12/27 09:45:39;;;;;;;3.38;1.42;;;;;;;-143.04;100.00;61139.28;4972416;28;20042;-86
2022/12/27 09:48:38;;;;;;;2.08;1.70;;;;;;;-143.04;100.00;61139.28;4956937;28;20051;-84
2022/12/27 09:51:20;;;;;;;5.38;1.75;;;;;;;-143.04;100.00;61139.28;4968817;28;20297;-85
2022/12/27 09:54:06;;;;;;;8.75;1.83;;;;;;;-143.04;100.00;61139.28;4966191;28;20038;-85
2022/12/27 09:56:44;;;;;;;2.85;1.70;;;;;;;-143.04;100.00;61139.28;4974071;28;20037;-88
2022/12/27 09:59:29;;;;;;;5.05;1.95;;;;;;;-143.04;100.00;61139.28;4974245;28;20050;-94
2022/12/27 10:01:58;;;;;;;5.53;1.60;;;;;;;-143.04;100.00;61139.28;4948832;29;20492;-89
2022/12/27 10:04:23;;;;;;;5.55;2.13;;;;;;;-143.04;100.00;61139.28;4941391;28;20035;-90
2022/12/27 10:06:49;;;;;;;5.63;1.60;;;;;;;-143.04;100.00;61139.28;4970444;28;20075;-90
2022/12/27 10:10:12;;;;;;;5.47;1.92;;;;;;;-143.04;100.00;61139.28;4974232;28;20520;-86
2022/12/27 10:13:09;;;;;;;3.97;1.60;;;;;;;-143.04;100.00;61139.28;4965272;28;20043;-86
2022/12/27 10:15:53;;;;;;;5.32;1.98;;;;;;;-143.04;100.00;61139.28;4966782;28;20039;-85
2022/12/27 10:18:46;;;;;;;6.68;2.03;;;;;;;-143.04;100.00;61139.28;4967661;28;20491;-85
2022/12/27 10:21:24;;;;;;;6.05;1.45;;;;;;;-143.04;100.00;61139.28;4969973;28;20135;-90
2022/12/27 10:24:24;;;;;;;3.10;1.60;;;;;;;-143.04;100.00;61139.28;4970615;28;20039;-88
2022/12/27 10:26:54;;;;;;;4.32;1.90;;;;;;;-143.04;100.00;61139.28;4977452;28;20042;-89
2022/12/27 10:29:23;;;;;;;3.85;1.58;;;;;;;-143.04;100.00;61139.28;4950607;28;20062;-83
2022/12/27 10:31:50;;;;;;;4.25;1.60;;;;;;;-143.04;100.00;61139.28;4969531;28;20114;-85
2022/12/27 10:34:23;;;;;;;1.67;1.35;;;;;;;-143.04;100.00;61139.28;4968045;28;20118;-83
2022/12/27 10:36:51;;;;;;;4.78;1.92;;;;;;;-143.04;100.00;61139.28;4952892;28;20031;-84
2022/12/27 10:39:24;;;;;;;6.07;2.00;;;;;;;-143.04;100.00;61139.28;4962280;28;20037;-84
2022/12/27 10:42:03;;;;;;;1.60;1.15;;;;;;;-143.04;100.00;61139.28;4955395;28;20035;-83
2022/12/27 10:44:29;;;;;;;4.05;1.80;;;;;;;-143.04;100.00;61139.28;4945980;28;20067;-83
2022/12/27 10:46:55;;;;;;;4.85;1.80;;;;;;;-143.04;100.00;61139.28;4941666;28;20528;-91
2022/12/27 10:49:25;;;;;;;3.50;1.70;;;;;;;-143.04;100.00;61139.28;4936938;29;20039;-92
2022/12/27 10:51:56;;;;;;;4.85;1.60;;;;;;;-143.04;100.00;61139.28;4940253;28;20088;-91
2022/12/27 10:54:29;;;;;;;4.53;1.60;;;;;;;-143.04;100.00;61139.28;4956382;28;20045;-84
2022/12/27 10:56:56;;;;;;;3.45;1.83;;;;;;;-143.04;100.00;61139.28;4950232;28;20040;-85
2022/12/27 10:59:27;;;;;;;4.03;1.73;;;;;;;-143.04;100.00;61139.28;4952825;28;20070;-85
2022/12/27 11:01:59;;;;;;;5.85;2.22;;;;;;;-143.04;100.00;61139.28;4948566;28;20034;-84
2022/12/27 11:04:26;;;;;;;5.47;1.83;;;;;;;-143.04;100.00;61139.28;4956502;28;20050;-85
2022/12/27 11:07:01;;;;;;;2.38;1.48;;;;;;;-143.04;100.00;61139.28;4952923;28;20058;-83
2022/12/27 11:09:40;;;;;;;3.80;2.42;;;;;;;-143.04;100.00;61139.28;4937572;29;20036;-87
2022/12/27 11:12:16;;;;;;;5.05;1.77;;;;;;;-143.04;100.00;61139.28;4955879;28;20419;-83
2022/12/27 11:15:00;;;;;;;4.40;1.77;;;;;;;-143.04;100.00;61139.28;4955575;28;20110;-85
2022/12/27 11:17:49;;;;;;;2.25;1.50;;;;;;;-143.04;100.00;61139.28;4947916;28;20083;-91
2022/12/27 11:20:37;;;;;;;;;;;;;;;-143.04;100.00;61139.28;4951725;28;20035;-87
2022/12/27 11:23:12;;;;;;;5.60;1.80;;;;;;;-143.04;100.00;61139.28;4958295;28;20420;-85
2022/12/27 11:26:01;;;;;;;5.47;2.00;;;;;;;-143.04;100.00;61139.28;4955406;29;20039;-85
2022/12/27 11:28:51;;;;;;;5.00;1.90;;;;;;;-143.04;100.00;61139.28;4964073;28;20133;-83
2022/12/27 11:31:27;;;;;;;6.65;1.80;;;;;;;-143.04;100.00;61139.28;4958264;28;20113;-83
2022/12/27 11:33:57;;;;;;;3.33;1.80;;;;;;;-143.04;100.00;61139.28;4961624;28;20481;-83
2022/12/27 11:36:30;;;;;;;4.22;1.65;;;;;;;-143.04;100.00;61139.28;4966666;28;20101;-84
2022/12/27 11:38:57;;;;;;;5.90;3.75;;;;;;;-143.04;100.00;61139.28;4963379;28;20043;-83
2022/12/27 11:41:41;;;;;;;5.20;2.15;;;;;;;-143.04;100.00;61139.28;4964752;28;20039;-84
2022/12/27 11:44:07;;;;;;;3.80;1.92;;;;;;;-143.04;100.00;61139.28;4970338;28;20043;-84
2022/12/27 11:47:08;;;;;;;3.88;1.60;;;;;;;-143.04;100.00;61139.28;4958244;28;20035;-84
2022/12/27 11:50:05;;;;;;;3.88;2.10;;;;;;;-143.04;100.00;61139.28;4953308;28;20046;-84
2022/12/27 11:52:42;;;;;;;6.97;1.98;;;;;;;-143.04;100.00;61139.28;4969058;28;20064;-84
2022/12/27 11:55:43;;;;;;;5.15;2.10;;;;;;;-143.04;100.00;61139.28;4974569;28;20034;-84
2022/12/27 11:58:31;;;;;;;5.60;2.00;;;;;;;-143.04;100.00;61139.28;4959541;28;20035;-84
2022/12/27 12:01:17;;;;;;;2.58;2.08;;;;;;;-143.04;100.00;61139.28;4966369;28;20051;-84
2022/12/27 12:04:45;;;;;;;3.80;1.77;;;;;;;-143.04;100.00;61139.28;4970844;28;20090;-84
2022/12/27 12:07:43;;;;;;;6.15;1.92;;;;;;;-143.04;100.00;61139.28;4948126;28;20487;-84
2022/12/27 12:10:55;;;;;;;4.13;2.10;;;;;;;-143.04;100.00;61139.28;4968327;28;20440;-85
2022/12/27 12:14:10;;;;;;;3.50;1.90;;;;;;;-143.04;100.00;61139.28;4965651;28;20423;-84
2022/12/27 12:17:13;;;;;;;5.70;2.25;;;;;;;-143.04;100.00;61139.28;4968143;28;20066;-83
2022/12/27 12:19:52;;;;;;;3.60;1.73;;;;;;;-143.04;100.00;61139.28;4966005;28;20116;-83
2022/12/27 12:22:55;;;;;;;3.05;1.48;;;;;;;-143.04;100.00;61139.28;4964367;28;20386;-83
2022/12/27 12:25:49;;;;;;;3.90;1.83;;;;;;;-143.04;100.00;61139.28;4968025;28;20114;-83
2022/12/27 12:28:45;;;;;;;6.85;1.90;;;;;;;-143.04;100.00;61139.28;4963643;28;20177;-83
2022/12/27 12:32:24;;;;;;;4.22;1.95;;;;;;;-143.04;100.00;61139.28;4970819;28;20035;-83
2022/12/27 12:35:35;;;;;;;4.97;1.55;;;;;;;-143.04;100.00;61139.28;4925533;28;20055;-85
2022/12/27 12:38:11;;;;;;;3.58;1.85;;;;;;;-143.04;100.00;61139.28;4968441;28;20041;-84
2022/12/27 12:41:17;;;;;;;4.35;1.45;;;;;;;-143.04;100.00;61139.28;4966162;28;20081;-84
2022/12/27 12:43:48;;;;;;;2.40;1.38;;;;;;;-143.04;100.00;61139.28;4960369;28;20490;-83
2022/12/27 12:47:01;;;;;;;3.70;1.40;;;;;;;-143.04;100.00;61139.28;4958540;28;20046;-84
2022/12/27 12:49:54;;;;;;;3.60;1.50;;;;;;;-143.04;100.00;61139.28;4943644;28;20883;-84
2022/12/27 12:52:53;;;;;;;3.00;1.42;;;;;;;-143.04;100.00;61139.28;4966112;28;20066;-85
2022/12/27 12:55:38;;;;;;;4.07;1.70;;;;;;;-143.04;100.00;61139.28;4965400;28;20039;-84
2022/12/27 12:58:20;;;;;;;2.28;1.48;;;;;;;-143.04;100.00;61139.28;4968445;28;20030;-85
2022/12/27 13:01:25;;;;;;;2.72;1.52;;;;;;;-143.04;100.00;61139.28;4968343;28;20557;-84
2022/12/27 13:04:47;;;;;;;6.97;2.05;;;;;;;-143.04;100.00;61139.28;4963378;28;20035;-84
2022/12/27 13:07:40;;;;;;;3.88;1.40;;;;;;;-143.04;100.00;61139.28;4964912;28;20046;-84
2022/12/27 13:10:59;;;;;;;3.60;1.60;;;;;;;-143.04;100.00;61139.28;4964573;28;20123;-84
2022/12/27 13:14:01;;;;;;;5.20;1.73;;;;;;;-143.04;100.00;61139.28;4932507;29;20556;-84
2022/12/27 13:16:26;;;;;;;;;;;;;;;-143.04;100.00;61139.28;4969373;28;20039;-84
2022/12/27 13:19:20;;;;;;;3.45;1.55;;;;;;;-143.04;100.00;61139.28;4967576;28;19949;-84
2022/12/27 13:22:14;;;;;;;4.97;1.60;;;;;;;-143.04;100.00;61139.28;4967265;28;20034;-84
2022/12/27 13:25:19;;;;;;;3.03;1.70;;;;;;;-143.04;100.00;61139.28;4969213;28;20042;-84
2022/12/27 13:28:10;;;;;;;3.85;1.50;;;;;;;-143.04;100.00;61139.28;4963055;28;20034;-84